新潟空港の過去48時間の天気

新潟空港 (Niigata)

現在時刻: 7/16 15:39 JST (7/16 06:39 UTC) 以下の時間は現地時間です。

過去48時間のMETAR気象情報
時間 風向 風速(m/s) 視程 気温(℃) 湿度(%) 気圧(hPa) 天気現象
16 15:00 西北西 5 10km以上 29 79 1011
16 14:00 西 6 10km以上 30 70 1011
16 13:00 西 6 10km以上 31 66 1011
16 12:27 西 6 10km以上 31 62 1011
16 12:00 南南西 4 10km以上 31 59 1011
16 11:16 3 10km以上 32 59 1012
16 11:00 不定 2 10km以上 30 70 1012
16 10:00 不定 2 10km以上 30 75 1012
16 09:00 南南西 3 10km以上 29 74 1012
16 08:00 南西 2 10km以上 28 79 1013
16 07:00 南南東 2 10km以上 27 79 1012
16 06:10 不定 1 10km以上 25 89 1012
15 21:00 3 10km以上 28 70 1011
15 20:00 南南西 4 10km以上 29 62 1011
15 19:00 南南西 5 10km以上 30 55 1011
15 18:35 5 10km以上 30 59 1010
15 18:00 西 4 10km以上 30 59 1010
15 17:00 西 6 10km以上 31 55 1010
15 16:00 西 5 10km以上 32 56 1010
15 15:00 西 6 10km以上 32 59 1010
15 14:00 西南西 5 10km以上 35 39 1010
15 13:30 西南西 5 10km以上 34 50 1010
15 13:00 西 6 10km以上 32 63 1010
15 12:27 西 6 10km以上 32 63 1011
15 12:00 西 6 10km以上 30 70 1011
15 11:00 西 7 10km以上 30 70 1011
15 10:17 西 5 10km以上 29 74 1011
15 10:07 西 6 10km以上 28 79 1011
15 10:00 5 10km以上 30 70 1011
15 09:00 5 10km以上 31 66 1011
15 08:00 4 10km以上 29 74 1011
15 07:00 4 10km以上 28 74 1011
15 06:10 2 10km以上 25 94 1011
14 21:00 北東 3 10km以上 25 94 1012
14 20:00 北北東 3 10km以上 26 89 1011
14 19:00 北北東 3 10km以上 26 89 1011
14 18:00 北東 3 10km以上 26 89 1010
14 17:00 3 10km以上 27 84 1010
14 16:00 北西 4 10km以上 27 79 1011
RJSN 160600Z 29010KT 9999 FEW030 BKN/// 29/25 Q1011
RJSN 160500Z 28012KT 9999 FEW030 BKN/// 30/24 Q1011
RJSN 160400Z 26011KT 9999 FEW030 BKN/// 31/24 Q1011
RJSN 160327Z 27011KT 9999 FEW020 SCT040 BKN/// 31/23 Q1011 RMK 1CU020 3CU040 A2987
RJSN 160300Z 21008KT 170V240 9999 FEW020 SCT040 BKN/// 31/22 Q1011
RJSN 160216Z VRB06KT 9999 FEW020 SCT035 BKN/// 32/23 Q1012 RMK 1CU020 3CU035 A2989
RJSN 160200Z VRB04KT 9999 FEW020 SCT035 BKN/// 30/24 Q1012
RJSN 160100Z VRB03KT 9999 FEW020 SCT140 BKN/// 30/25 Q1012
RJSN 160000Z 21006KT 160V260 9999 FEW020 SCT140 BKN/// 29/24 Q1012
RJSN 152300Z 22004KT 180V280 CAVOK 28/24 Q1013
RJSN 152200Z 16004KT CAVOK 27/23 Q1012
RJSN 152110Z VRB02KT CAVOK 25/23 Q1012 RMK A2991
RJSN 151200Z 19006KT 9999 FEW030 BKN/// 28/22 Q1011
RJSN 151100Z 21007KT 9999 FEW030 BKN/// 29/21 Q1011
RJSN 151000Z 20009KT 9999 FEW030 BKN/// 30/20 Q1011
RJSN 150935Z 19010KT 9999 FEW030 BKN/// 30/21 Q1010 RMK 1CU030 A2985
RJSN 150900Z 26008KT 9999 FEW030 SCT/// 30/21 Q1010
RJSN 150800Z 27012KT 9999 FEW030 SCT/// 31/21 Q1010
RJSN 150700Z 26010KT 9999 FEW030 32/22 Q1010
RJSN 150600Z 27012KT 9999 FEW030 32/23 Q1010
RJSN 150500Z 24009KT 200V270 9999 FEW030 35/19 Q1010
RJSN 150430Z 25010KT 220V280 9999 FEW030 34/22 Q1010 RMK 1CU030 A2984
RJSN 150400Z 27011KT 9999 FEW030 32/24 Q1010
RJSN 150327Z 26011KT 9999 FEW030 32/24 Q1011 RMK 1CU030 A2985
RJSN 150300Z 28012KT 9999 FEW030 30/24 Q1011
RJSN 150200Z 27013KT 9999 FEW030 30/24 Q1011
RJSN 150117Z 27010KT 9999 FEW030 29/24 Q1011 RMK 1CU030 A2987
RJSN 150107Z 27011KT 9999 FEW030 28/24 Q1011 RMK 1CU030 A2987
RJSN 150100Z 19009KT 150V220 9999 FEW030 30/24 Q1011
RJSN 150000Z 19010KT 9999 FEW030 31/24 Q1011
RJSN 142300Z 18007KT 150V210 9999 FEW030 29/24 Q1011
RJSN 142200Z 18007KT 9999 FEW030 28/23 Q1011
RJSN 142110Z 19003KT 150V220 9999 FEW030 25/24 Q1011 RMK 1CU030 A2988
RJSN 141200Z 04005KT 9999 FEW030 SCT/// 25/24 Q1012
RJSN 141100Z 02006KT 9999 FEW030 SCT/// 26/24 Q1011
RJSN 141000Z 03005KT 9999 FEW030 SCT/// 26/24 Q1011
RJSN 140900Z 04005KT 9999 FEW030 BKN/// 26/24 Q1010
RJSN 140800Z 36006KT 9999 FEW030 SCT/// 27/24 Q1010
RJSN 140700Z 32007KT 9999 FEW030 SCT/// 27/23 Q1011